sensor_id;sensor_type;location;lat;lon;timestamp;temperature;humidity
8858;DHT22;4465;50.904;4.696;2023-07-20T00:01:31;16.40;99.90
8858;DHT22;4465;50.904;4.696;2023-07-20T00:03:57;16.40;99.90
8858;DHT22;4465;50.904;4.696;2023-07-20T00:06:24;16.30;99.90
8858;DHT22;4465;50.904;4.696;2023-07-20T00:08:51;16.30;99.90
8858;DHT22;4465;50.904;4.696;2023-07-20T00:11:17;16.40;99.90
8858;DHT22;4465;50.904;4.696;2023-07-20T00:13:45;16.30;99.90
8858;DHT22;4465;50.904;4.696;2023-07-20T00:16:11;16.30;99.90
8858;DHT22;4465;50.904;4.696;2023-07-20T00:18:39;16.30;99.90
8858;DHT22;4465;50.904;4.696;2023-07-20T00:21:05;16.20;99.90
8858;DHT22;4465;50.904;4.696;2023-07-20T00:23:31;16.20;99.90
8858;DHT22;4465;50.904;4.696;2023-07-20T00:25:57;16.30;99.90
8858;DHT22;4465;50.904;4.696;2023-07-20T00:28:25;16.20;99.90
8858;DHT22;4465;50.904;4.696;2023-07-20T00:30:53;16.30;99.90
8858;DHT22;4465;50.904;4.696;2023-07-20T00:33:21;16.20;99.90
8858;DHT22;4465;50.904;4.696;2023-07-20T00:35:47;16.20;99.90
8858;DHT22;4465;50.904;4.696;2023-07-20T00:38:13;16.20;99.90
8858;DHT22;4465;50.904;4.696;2023-07-20T00:40:41;16.20;99.90
8858;DHT22;4465;50.904;4.696;2023-07-20T00:43:08;16.20;99.90
8858;DHT22;4465;50.904;4.696;2023-07-20T00:45:36;16.20;99.90
8858;DHT22;4465;50.904;4.696;2023-07-20T00:48:04;16.20;99.90
8858;DHT22;4465;50.904;4.696;2023-07-20T00:50:34;16.20;99.90
8858;DHT22;4465;50.904;4.696;2023-07-20T00:53:06;16.20;99.90
8858;DHT22;4465;50.904;4.696;2023-07-20T00:55:32;16.20;99.90
8858;DHT22;4465;50.904;4.696;2023-07-20T00:57:59;16.20;99.90
8858;DHT22;4465;50.904;4.696;2023-07-20T01:00:26;16.30;99.90
8858;DHT22;4465;50.904;4.696;2023-07-20T01:02:52;16.30;99.90
8858;DHT22;4465;50.904;4.696;2023-07-20T01:05:18;16.30;99.90
8858;DHT22;4465;50.904;4.696;2023-07-20T01:07:58;16.30;99.90
8858;DHT22;4465;50.904;4.696;2023-07-20T01:10:40;16.30;99.90
8858;DHT22;4465;50.904;4.696;2023-07-20T01:13:14;16.30;99.90
8858;DHT22;4465;50.904;4.696;2023-07-20T01:15:41;16.30;99.90
8858;DHT22;4465;50.904;4.696;2023-07-20T01:18:06;16.30;99.90
8858;DHT22;4465;50.904;4.696;2023-07-20T01:20:33;16.30;99.90
8858;DHT22;4465;50.904;4.696;2023-07-20T01:23:38;16.30;99.90
8858;DHT22;4465;50.904;4.696;2023-07-20T01:31:41;16.40;99.90
8858;DHT22;4465;50.904;4.696;2023-07-20T01:34:12;16.40;99.90
8858;DHT22;4465;50.904;4.696;2023-07-20T01:36:42;16.40;99.90
8858;DHT22;4465;50.904;4.696;2023-07-20T01:39:12;16.40;99.90
8858;DHT22;4465;50.904;4.696;2023-07-20T01:41:38;16.50;99.90
8858;DHT22;4465;50.904;4.696;2023-07-20T01:44:07;16.50;99.90
8858;DHT22;4465;50.904;4.696;2023-07-20T01:46:33;16.50;99.90
8858;DHT22;4465;50.904;4.696;2023-07-20T01:48:59;16.50;99.90
8858;DHT22;4465;50.904;4.696;2023-07-20T01:51:25;16.50;99.90
8858;DHT22;4465;50.904;4.696;2023-07-20T01:53:51;16.50;99.90
8858;DHT22;4465;50.904;4.696;2023-07-20T01:56:17;16.50;99.90
8858;DHT22;4465;50.904;4.696;2023-07-20T01:58:43;16.50;99.90
8858;DHT22;4465;50.904;4.696;2023-07-20T02:01:09;16.50;99.90
8858;DHT22;4465;50.904;4.696;2023-07-20T02:03:35;16.50;99.90
8858;DHT22;4465;50.904;4.696;2023-07-20T02:06:01;16.50;99.90
8858;DHT22;4465;50.904;4.696;2023-07-20T02:08:27;16.50;99.90
8858;DHT22;4465;50.904;4.696;2023-07-20T02:10:53;16.50;99.90
8858;DHT22;4465;50.904;4.696;2023-07-20T02:13:19;16.50;99.90
8858;DHT22;4465;50.904;4.696;2023-07-20T02:15:44;16.50;99.90
8858;DHT22;4465;50.904;4.696;2023-07-20T02:18:12;16.40;99.90
8858;DHT22;4465;50.904;4.696;2023-07-20T02:20:40;16.40;99.90
8858;DHT22;4465;50.904;4.696;2023-07-20T02:23:06;16.40;99.90
8858;DHT22;4465;50.904;4.696;2023-07-20T02:25:32;16.40;99.90
8858;DHT22;4465;50.904;4.696;2023-07-20T02:27:58;16.30;99.90
8858;DHT22;4465;50.904;4.696;2023-07-20T02:30:24;16.30;99.90
8858;DHT22;4465;50.904;4.696;2023-07-20T02:32:52;16.30;99.90
8858;DHT22;4465;50.904;4.696;2023-07-20T02:35:21;16.30;99.90
8858;DHT22;4465;50.904;4.696;2023-07-20T02:37:51;16.30;99.90
8858;DHT22;4465;50.904;4.696;2023-07-20T02:40:20;16.20;99.90
8858;DHT22;4465;50.904;4.696;2023-07-20T02:42:45;16.20;99.90
8858;DHT22;4465;50.904;4.696;2023-07-20T02:45:11;16.20;99.90
8858;DHT22;4465;50.904;4.696;2023-07-20T02:47:40;16.20;99.90
8858;DHT22;4465;50.904;4.696;2023-07-20T02:50:10;16.20;99.90
8858;DHT22;4465;50.904;4.696;2023-07-20T02:52:39;16.20;99.90
8858;DHT22;4465;50.904;4.696;2023-07-20T02:55:05;16.20;99.90
8858;DHT22;4465;50.904;4.696;2023-07-20T02:57:34;16.20;99.90
8858;DHT22;4465;50.904;4.696;2023-07-20T03:00:01;16.10;99.90
8858;DHT22;4465;50.904;4.696;2023-07-20T03:02:29;16.10;99.90
8858;DHT22;4465;50.904;4.696;2023-07-20T03:04:55;16.10;99.90
8858;DHT22;4465;50.904;4.696;2023-07-20T03:07:23;16.10;99.90
8858;DHT22;4465;50.904;4.696;2023-07-20T03:09:49;16.10;99.90
8858;DHT22;4465;50.904;4.696;2023-07-20T03:12:15;16.00;99.90
8858;DHT22;4465;50.904;4.696;2023-07-20T03:14:41;16.00;99.90
8858;DHT22;4465;50.904;4.696;2023-07-20T03:17:06;16.00;99.90
8858;DHT22;4465;50.904;4.696;2023-07-20T03:19:34;16.00;99.90
8858;DHT22;4465;50.904;4.696;2023-07-20T03:22:00;16.00;99.90
8858;DHT22;4465;50.904;4.696;2023-07-20T03:24:26;16.00;99.90
8858;DHT22;4465;50.904;4.696;2023-07-20T03:26:51;15.90;99.90
8858;DHT22;4465;50.904;4.696;2023-07-20T03:29:18;15.90;99.90
8858;DHT22;4465;50.904;4.696;2023-07-20T03:31:44;15.90;99.90
8858;DHT22;4465;50.904;4.696;2023-07-20T03:34:10;15.90;99.90
8858;DHT22;4465;50.904;4.696;2023-07-20T03:36:36;16.00;99.90
8858;DHT22;4465;50.904;4.696;2023-07-20T03:39:02;16.00;99.90
8858;DHT22;4465;50.904;4.696;2023-07-20T03:41:28;16.00;99.90
8858;DHT22;4465;50.904;4.696;2023-07-20T03:43:54;16.00;99.90
8858;DHT22;4465;50.904;4.696;2023-07-20T03:46:21;16.00;99.90
8858;DHT22;4465;50.904;4.696;2023-07-20T03:48:49;16.00;99.90
8858;DHT22;4465;50.904;4.696;2023-07-20T03:51:15;16.00;99.90
8858;DHT22;4465;50.904;4.696;2023-07-20T03:53:41;16.00;99.90
8858;DHT22;4465;50.904;4.696;2023-07-20T03:56:08;16.00;99.90
8858;DHT22;4465;50.904;4.696;2023-07-20T03:58:36;16.00;99.90
8858;DHT22;4465;50.904;4.696;2023-07-20T04:01:02;16.00;99.90
8858;DHT22;4465;50.904;4.696;2023-07-20T04:03:28;16.00;99.90
8858;DHT22;4465;50.904;4.696;2023-07-20T04:05:55;16.00;99.90
8858;DHT22;4465;50.904;4.696;2023-07-20T04:08:23;15.90;99.90
8858;DHT22;4465;50.904;4.696;2023-07-20T04:10:49;15.90;99.90
8858;DHT22;4465;50.904;4.696;2023-07-20T04:13:17;15.90;99.90
8858;DHT22;4465;50.904;4.696;2023-07-20T04:15:46;15.90;99.90
8858;DHT22;4465;50.904;4.696;2023-07-20T04:18:12;16.00;99.90
8858;DHT22;4465;50.904;4.696;2023-07-20T04:20:38;15.90;99.90
8858;DHT22;4465;50.904;4.696;2023-07-20T04:23:04;16.00;99.90
8858;DHT22;4465;50.904;4.696;2023-07-20T04:25:29;16.00;99.90
8858;DHT22;4465;50.904;4.696;2023-07-20T04:28:01;16.00;99.90
8858;DHT22;4465;50.904;4.696;2023-07-20T04:30:27;16.00;99.90
8858;DHT22;4465;50.904;4.696;2023-07-20T04:32:53;16.00;99.90
8858;DHT22;4465;50.904;4.696;2023-07-20T04:35:50;16.00;99.90
8858;DHT22;4465;50.904;4.696;2023-07-20T04:38:19;16.10;99.90
8858;DHT22;4465;50.904;4.696;2023-07-20T04:40:47;16.10;99.90
8858;DHT22;4465;50.904;4.696;2023-07-20T04:43:16;16.10;99.90
8858;DHT22;4465;50.904;4.696;2023-07-20T04:45:45;16.10;99.90
8858;DHT22;4465;50.904;4.696;2023-07-20T04:48:12;16.10;99.90
8858;DHT22;4465;50.904;4.696;2023-07-20T04:50:43;16.20;99.90
8858;DHT22;4465;50.904;4.696;2023-07-20T04:53:09;16.20;99.90
8858;DHT22;4465;50.904;4.696;2023-07-20T04:55:39;16.20;99.90
8858;DHT22;4465;50.904;4.696;2023-07-20T04:58:06;16.30;99.90
8858;DHT22;4465;50.904;4.696;2023-07-20T05:00:35;16.30;99.90
8858;DHT22;4465;50.904;4.696;2023-07-20T05:03:01;16.30;99.90
8858;DHT22;4465;50.904;4.696;2023-07-20T05:05:31;16.30;99.90
8858;DHT22;4465;50.904;4.696;2023-07-20T05:07:59;16.40;99.90
8858;DHT22;4465;50.904;4.696;2023-07-20T05:10:28;16.40;99.90
8858;DHT22;4465;50.904;4.696;2023-07-20T05:12:56;16.40;99.90
8858;DHT22;4465;50.904;4.696;2023-07-20T05:15:22;16.40;99.90
8858;DHT22;4465;50.904;4.696;2023-07-20T05:17:48;16.50;99.90
8858;DHT22;4465;50.904;4.696;2023-07-20T05:20:14;16.50;99.90
8858;DHT22;4465;50.904;4.696;2023-07-20T05:22:42;16.50;99.90
8858;DHT22;4465;50.904;4.696;2023-07-20T05:25:09;16.50;99.90
8858;DHT22;4465;50.904;4.696;2023-07-20T05:27:39;16.50;99.90
8858;DHT22;4465;50.904;4.696;2023-07-20T05:30:06;16.50;99.90
8858;DHT22;4465;50.904;4.696;2023-07-20T05:32:33;16.60;99.90
8858;DHT22;4465;50.904;4.696;2023-07-20T05:34:59;16.60;99.90
8858;DHT22;4465;50.904;4.696;2023-07-20T05:37:27;16.60;99.90
8858;DHT22;4465;50.904;4.696;2023-07-20T05:39:53;16.60;99.90
8858;DHT22;4465;50.904;4.696;2023-07-20T05:42:19;16.60;99.90
8858;DHT22;4465;50.904;4.696;2023-07-20T05:44:45;16.60;99.90
8858;DHT22;4465;50.904;4.696;2023-07-20T05:47:15;16.60;99.90
8858;DHT22;4465;50.904;4.696;2023-07-20T05:49:41;16.70;99.90
8858;DHT22;4465;50.904;4.696;2023-07-20T05:52:07;16.70;99.90
8858;DHT22;4465;50.904;4.696;2023-07-20T05:54:33;16.70;99.90
8858;DHT22;4465;50.904;4.696;2023-07-20T05:57:01;16.70;99.90
8858;DHT22;4465;50.904;4.696;2023-07-20T05:59:27;16.80;99.90
8858;DHT22;4465;50.904;4.696;2023-07-20T06:01:55;16.80;99.90
8858;DHT22;4465;50.904;4.696;2023-07-20T06:04:21;16.80;99.90
8858;DHT22;4465;50.904;4.696;2023-07-20T06:06:47;16.90;99.90
8858;DHT22;4465;50.904;4.696;2023-07-20T06:09:13;16.90;99.90
8858;DHT22;4465;50.904;4.696;2023-07-20T06:11:42;16.90;99.90
8858;DHT22;4465;50.904;4.696;2023-07-20T06:14:08;17.00;99.90
8858;DHT22;4465;50.904;4.696;2023-07-20T06:16:34;17.00;99.90
8858;DHT22;4465;50.904;4.696;2023-07-20T06:19:02;17.00;99.90
8858;DHT22;4465;50.904;4.696;2023-07-20T06:21:28;17.00;99.90
8858;DHT22;4465;50.904;4.696;2023-07-20T06:23:54;17.10;99.90
8858;DHT22;4465;50.904;4.696;2023-07-20T06:26:20;17.10;99.90
8858;DHT22;4465;50.904;4.696;2023-07-20T06:28:46;17.10;99.90
8858;DHT22;4465;50.904;4.696;2023-07-20T06:31:12;17.10;99.90
8858;DHT22;4465;50.904;4.696;2023-07-20T06:33:40;17.20;99.90
8858;DHT22;4465;50.904;4.696;2023-07-20T06:36:06;17.20;99.90
8858;DHT22;4465;50.904;4.696;2023-07-20T06:38:32;17.20;99.90
8858;DHT22;4465;50.904;4.696;2023-07-20T06:41:02;17.30;99.90
8858;DHT22;4465;50.904;4.696;2023-07-20T06:43:31;17.40;99.90
8858;DHT22;4465;50.904;4.696;2023-07-20T06:45:56;17.40;99.90
8858;DHT22;4465;50.904;4.696;2023-07-20T06:48:22;17.40;99.90
8858;DHT22;4465;50.904;4.696;2023-07-20T06:50:48;17.50;99.90
8858;DHT22;4465;50.904;4.696;2023-07-20T06:53:16;17.60;99.90
8858;DHT22;4465;50.904;4.696;2023-07-20T06:55:43;17.60;99.90
8858;DHT22;4465;50.904;4.696;2023-07-20T06:58:10;17.70;99.90
8858;DHT22;4465;50.904;4.696;2023-07-20T07:00:36;17.70;99.90
8858;DHT22;4465;50.904;4.696;2023-07-20T07:03:02;17.70;99.90
8858;DHT22;4465;50.904;4.696;2023-07-20T07:05:30;17.70;99.90
8858;DHT22;4465;50.904;4.696;2023-07-20T07:07:56;17.70;99.90
8858;DHT22;4465;50.904;4.696;2023-07-20T07:10:22;17.70;99.90
8858;DHT22;4465;50.904;4.696;2023-07-20T07:12:50;17.70;99.90
8858;DHT22;4465;50.904;4.696;2023-07-20T07:15:16;17.80;99.90
8858;DHT22;4465;50.904;4.696;2023-07-20T07:17:45;17.80;99.90
8858;DHT22;4465;50.904;4.696;2023-07-20T07:20:14;17.80;99.90
8858;DHT22;4465;50.904;4.696;2023-07-20T07:22:39;17.80;99.90
8858;DHT22;4465;50.904;4.696;2023-07-20T07:25:06;17.80;99.90
8858;DHT22;4465;50.904;4.696;2023-07-20T07:27:36;17.80;99.90
8858;DHT22;4465;50.904;4.696;2023-07-20T07:30:03;17.80;99.90
8858;DHT22;4465;50.904;4.696;2023-07-20T07:32:31;17.80;99.90
8858;DHT22;4465;50.904;4.696;2023-07-20T07:34:57;18.00;99.90
8858;DHT22;4465;50.904;4.696;2023-07-20T07:37:26;18.00;99.90
8858;DHT22;4465;50.904;4.696;2023-07-20T07:39:52;18.10;99.90
8858;DHT22;4465;50.904;4.696;2023-07-20T07:42:18;18.30;99.90
8858;DHT22;4465;50.904;4.696;2023-07-20T07:44:51;18.30;99.90
8858;DHT22;4465;50.904;4.696;2023-07-20T07:47:17;18.40;99.90
8858;DHT22;4465;50.904;4.696;2023-07-20T07:49:43;18.50;99.90
8858;DHT22;4465;50.904;4.696;2023-07-20T07:52:09;18.60;99.90
8858;DHT22;4465;50.904;4.696;2023-07-20T07:54:35;18.60;99.90
8858;DHT22;4465;50.904;4.696;2023-07-20T07:57:03;18.70;99.90
8858;DHT22;4465;50.904;4.696;2023-07-20T07:59:29;18.70;99.90
8858;DHT22;4465;50.904;4.696;2023-07-20T08:01:56;18.80;99.90
8858;DHT22;4465;50.904;4.696;2023-07-20T08:04:24;18.90;99.90
8858;DHT22;4465;50.904;4.696;2023-07-20T08:06:50;19.00;99.90
8858;DHT22;4465;50.904;4.696;2023-07-20T08:09:16;19.00;99.90
8858;DHT22;4465;50.904;4.696;2023-07-20T08:11:42;19.00;99.90
8858;DHT22;4465;50.904;4.696;2023-07-20T08:14:10;19.10;99.90
8858;DHT22;4465;50.904;4.696;2023-07-20T08:16:38;19.20;99.90
8858;DHT22;4465;50.904;4.696;2023-07-20T08:19:04;19.30;99.90
8858;DHT22;4465;50.904;4.696;2023-07-20T08:21:30;19.50;99.90
8858;DHT22;4465;50.904;4.696;2023-07-20T08:23:56;19.60;99.90
8858;DHT22;4465;50.904;4.696;2023-07-20T08:26:23;19.80;99.90
8858;DHT22;4465;50.904;4.696;2023-07-20T08:28:49;20.00;99.90
8858;DHT22;4465;50.904;4.696;2023-07-20T08:31:15;20.20;99.90
8858;DHT22;4465;50.904;4.696;2023-07-20T08:33:41;20.40;99.90
8858;DHT22;4465;50.904;4.696;2023-07-20T08:36:07;20.60;99.90
8858;DHT22;4465;50.904;4.696;2023-07-20T08:38:33;20.70;99.90
8858;DHT22;4465;50.904;4.696;2023-07-20T08:41:01;20.80;99.90
8858;DHT22;4465;50.904;4.696;2023-07-20T08:43:28;20.80;99.90
8858;DHT22;4465;50.904;4.696;2023-07-20T08:45:58;20.90;99.90
8858;DHT22;4465;50.904;4.696;2023-07-20T08:48:24;20.90;99.90
8858;DHT22;4465;50.904;4.696;2023-07-20T08:50:57;20.80;99.90
8858;DHT22;4465;50.904;4.696;2023-07-20T08:53:26;20.80;99.90
8858;DHT22;4465;50.904;4.696;2023-07-20T08:55:52;20.70;99.90
8858;DHT22;4465;50.904;4.696;2023-07-20T08:58:18;20.60;99.90
8858;DHT22;4465;50.904;4.696;2023-07-20T09:00:46;20.60;99.90
8858;DHT22;4465;50.904;4.696;2023-07-20T09:03:16;20.60;99.90
8858;DHT22;4465;50.904;4.696;2023-07-20T09:05:42;20.70;99.90
8858;DHT22;4465;50.904;4.696;2023-07-20T09:08:08;20.70;99.90
8858;DHT22;4465;50.904;4.696;2023-07-20T09:10:33;20.80;99.90
8858;DHT22;4465;50.904;4.696;2023-07-20T09:12:59;20.80;99.90
8858;DHT22;4465;50.904;4.696;2023-07-20T09:15:25;20.80;99.90
8858;DHT22;4465;50.904;4.696;2023-07-20T09:17:52;20.80;99.90
8858;DHT22;4465;50.904;4.696;2023-07-20T09:20:22;20.80;99.90
8858;DHT22;4465;50.904;4.696;2023-07-20T09:22:48;20.80;99.90
8858;DHT22;4465;50.904;4.696;2023-07-20T09:25:16;20.70;99.90
8858;DHT22;4465;50.904;4.696;2023-07-20T09:27:46;20.60;99.90
8858;DHT22;4465;50.904;4.696;2023-07-20T09:30:14;20.50;99.90
8858;DHT22;4465;50.904;4.696;2023-07-20T09:32:47;20.40;99.90
8858;DHT22;4465;50.904;4.696;2023-07-20T09:35:14;20.30;99.90
8858;DHT22;4465;50.904;4.696;2023-07-20T09:37:46;20.30;99.90
8858;DHT22;4465;50.904;4.696;2023-07-20T09:40:15;20.20;99.90
8858;DHT22;4465;50.904;4.696;2023-07-20T09:42:43;20.20;99.90
8858;DHT22;4465;50.904;4.696;2023-07-20T09:45:09;20.20;99.90
8858;DHT22;4465;50.904;4.696;2023-07-20T09:47:37;20.20;99.90
8858;DHT22;4465;50.904;4.696;2023-07-20T09:50:07;20.20;99.90
8858;DHT22;4465;50.904;4.696;2023-07-20T09:52:40;20.20;99.90
8858;DHT22;4465;50.904;4.696;2023-07-20T09:55:08;20.30;99.90
8858;DHT22;4465;50.904;4.696;2023-07-20T09:57:35;20.40;99.90
8858;DHT22;4465;50.904;4.696;2023-07-20T10:00:06;20.50;99.90
8858;DHT22;4465;50.904;4.696;2023-07-20T10:02:43;20.50;99.90
8858;DHT22;4465;50.904;4.696;2023-07-20T10:05:12;20.60;99.90
8858;DHT22;4465;50.904;4.696;2023-07-20T10:07:47;20.60;99.90
8858;DHT22;4465;50.904;4.696;2023-07-20T10:10:17;20.60;99.90
8858;DHT22;4465;50.904;4.696;2023-07-20T10:12:49;20.60;99.90
8858;DHT22;4465;50.904;4.696;2023-07-20T10:15:20;20.70;99.90
8858;DHT22;4465;50.904;4.696;2023-07-20T10:20:33;20.80;99.90
8858;DHT22;4465;50.904;4.696;2023-07-20T10:23:01;20.80;99.90
8858;DHT22;4465;50.904;4.696;2023-07-20T10:25:28;20.90;99.90
8858;DHT22;4465;50.904;4.696;2023-07-20T10:27:57;21.10;99.90
8858;DHT22;4465;50.904;4.696;2023-07-20T10:30:25;21.10;99.90
8858;DHT22;4465;50.904;4.696;2023-07-20T10:32:53;21.20;99.90
8858;DHT22;4465;50.904;4.696;2023-07-20T10:35:19;21.20;99.90
8858;DHT22;4465;50.904;4.696;2023-07-20T10:40:31;21.20;99.90
8858;DHT22;4465;50.904;4.696;2023-07-20T10:43:02;21.20;99.90
8858;DHT22;4465;50.904;4.696;2023-07-20T10:45:48;21.20;99.90
8858;DHT22;4465;50.904;4.696;2023-07-20T10:48:20;21.30;99.90
8858;DHT22;4465;50.904;4.696;2023-07-20T10:51:13;21.40;99.90
8858;DHT22;4465;50.904;4.696;2023-07-20T10:53:40;21.50;99.90
8858;DHT22;4465;50.904;4.696;2023-07-20T10:56:12;21.70;99.90
8858;DHT22;4465;50.904;4.696;2023-07-20T10:58:45;21.70;99.90
8858;DHT22;4465;50.904;4.696;2023-07-20T11:01:17;21.80;99.90
8858;DHT22;4465;50.904;4.696;2023-07-20T11:03:48;21.70;99.90
8858;DHT22;4465;50.904;4.696;2023-07-20T11:09:13;21.90;99.90
8858;DHT22;4465;50.904;4.696;2023-07-20T11:11:44;22.10;99.90
8858;DHT22;4465;50.904;4.696;2023-07-20T11:14:25;22.20;99.90
8858;DHT22;4465;50.904;4.696;2023-07-20T11:16:52;22.30;99.90
8858;DHT22;4465;50.904;4.696;2023-07-20T11:21:46;22.60;99.90
8858;DHT22;4465;50.904;4.696;2023-07-20T11:24:12;22.90;99.90
8858;DHT22;4465;50.904;4.696;2023-07-20T11:29:12;23.00;99.90
8858;DHT22;4465;50.904;4.696;2023-07-20T11:31:39;23.00;99.90
8858;DHT22;4465;50.904;4.696;2023-07-20T11:34:06;22.90;99.90
8858;DHT22;4465;50.904;4.696;2023-07-20T11:36:32;22.80;99.90
8858;DHT22;4465;50.904;4.696;2023-07-20T11:38:59;22.60;99.90
8858;DHT22;4465;50.904;4.696;2023-07-20T11:41:25;22.40;99.90
8858;DHT22;4465;50.904;4.696;2023-07-20T11:43:54;22.20;99.90
8858;DHT22;4465;50.904;4.696;2023-07-20T11:46:20;22.10;99.90
8858;DHT22;4465;50.904;4.696;2023-07-20T11:48:46;22.10;99.90
8858;DHT22;4465;50.904;4.696;2023-07-20T11:51:16;22.00;99.90
8858;DHT22;4465;50.904;4.696;2023-07-20T11:53:45;22.00;99.90
8858;DHT22;4465;50.904;4.696;2023-07-20T11:56:12;21.90;99.90
8858;DHT22;4465;50.904;4.696;2023-07-20T11:58:43;21.80;99.90
8858;DHT22;4465;50.904;4.696;2023-07-20T12:01:09;21.80;99.90
8858;DHT22;4465;50.904;4.696;2023-07-20T12:03:37;21.70;99.90
8858;DHT22;4465;50.904;4.696;2023-07-20T12:06:07;21.70;99.90
8858;DHT22;4465;50.904;4.696;2023-07-20T12:08:34;21.70;99.90
8858;DHT22;4465;50.904;4.696;2023-07-20T12:11:00;21.80;99.90
8858;DHT22;4465;50.904;4.696;2023-07-20T12:13:41;22.10;99.90
8858;DHT22;4465;50.904;4.696;2023-07-20T12:16:17;22.40;99.90
8858;DHT22;4465;50.904;4.696;2023-07-20T12:18:46;22.60;99.90
8858;DHT22;4465;50.904;4.696;2023-07-20T12:21:12;22.80;99.90
8858;DHT22;4465;50.904;4.696;2023-07-20T12:23:39;22.90;99.90
8858;DHT22;4465;50.904;4.696;2023-07-20T12:26:09;22.90;99.90
8858;DHT22;4465;50.904;4.696;2023-07-20T12:28:41;22.80;99.90
8858;DHT22;4465;50.904;4.696;2023-07-20T12:31:11;22.70;99.90
8858;DHT22;4465;50.904;4.696;2023-07-20T12:33:37;22.60;99.90
8858;DHT22;4465;50.904;4.696;2023-07-20T12:36:04;22.40;99.90
8858;DHT22;4465;50.904;4.696;2023-07-20T12:38:30;22.40;99.90
8858;DHT22;4465;50.904;4.696;2023-07-20T12:40:57;22.40;99.90
8858;DHT22;4465;50.904;4.696;2023-07-20T12:43:24;22.60;99.90
8858;DHT22;4465;50.904;4.696;2023-07-20T12:45:50;23.00;99.90
8858;DHT22;4465;50.904;4.696;2023-07-20T12:48:16;23.40;99.90
8858;DHT22;4465;50.904;4.696;2023-07-20T12:50:44;23.70;99.90
8858;DHT22;4465;50.904;4.696;2023-07-20T12:53:10;24.00;99.90
8858;DHT22;4465;50.904;4.696;2023-07-20T12:55:37;24.00;99.90
8858;DHT22;4465;50.904;4.696;2023-07-20T12:58:03;24.00;99.90
8858;DHT22;4465;50.904;4.696;2023-07-20T13:00:29;24.00;99.90
8858;DHT22;4465;50.904;4.696;2023-07-20T13:02:55;23.90;99.90
8858;DHT22;4465;50.904;4.696;2023-07-20T13:05:21;23.90;99.90
8858;DHT22;4465;50.904;4.696;2023-07-20T13:07:47;23.90;99.90
8858;DHT22;4465;50.904;4.696;2023-07-20T13:10:13;23.90;99.90
8858;DHT22;4465;50.904;4.696;2023-07-20T13:12:41;23.80;99.90
8858;DHT22;4465;50.904;4.696;2023-07-20T13:15:11;23.70;99.90
8858;DHT22;4465;50.904;4.696;2023-07-20T13:17:38;23.70;99.90
8858;DHT22;4465;50.904;4.696;2023-07-20T13:20:09;23.60;99.90
8858;DHT22;4465;50.904;4.696;2023-07-20T13:22:40;23.60;99.90
8858;DHT22;4465;50.904;4.696;2023-07-20T13:25:09;23.60;99.90
8858;DHT22;4465;50.904;4.696;2023-07-20T13:27:37;23.70;99.90
8858;DHT22;4465;50.904;4.696;2023-07-20T13:30:04;23.70;99.90
8858;DHT22;4465;50.904;4.696;2023-07-20T13:32:33;23.70;99.90
8858;DHT22;4465;50.904;4.696;2023-07-20T13:34:59;23.70;99.90
8858;DHT22;4465;50.904;4.696;2023-07-20T13:37:25;23.60;99.90
8858;DHT22;4465;50.904;4.696;2023-07-20T13:39:55;23.50;99.90
8858;DHT22;4465;50.904;4.696;2023-07-20T13:42:21;23.50;99.90
8858;DHT22;4465;50.904;4.696;2023-07-20T13:44:48;23.40;99.90
8858;DHT22;4465;50.904;4.696;2023-07-20T13:47:14;23.20;99.90
8858;DHT22;4465;50.904;4.696;2023-07-20T13:49:43;23.10;99.90
8858;DHT22;4465;50.904;4.696;2023-07-20T13:52:14;23.10;99.90
8858;DHT22;4465;50.904;4.696;2023-07-20T13:54:40;23.00;99.90
8858;DHT22;4465;50.904;4.696;2023-07-20T13:57:06;23.00;99.90
8858;DHT22;4465;50.904;4.696;2023-07-20T13:59:32;22.90;99.90
8858;DHT22;4465;50.904;4.696;2023-07-20T14:01:58;22.80;99.90
8858;DHT22;4465;50.904;4.696;2023-07-20T14:04:24;22.70;99.90
8858;DHT22;4465;50.904;4.696;2023-07-20T14:06:51;22.60;99.90
8858;DHT22;4465;50.904;4.696;2023-07-20T14:09:17;22.60;99.90
8858;DHT22;4465;50.904;4.696;2023-07-20T14:11:43;22.50;99.90
8858;DHT22;4465;50.904;4.696;2023-07-20T14:14:09;22.50;99.90
8858;DHT22;4465;50.904;4.696;2023-07-20T14:16:35;22.50;99.90
8858;DHT22;4465;50.904;4.696;2023-07-20T14:19:01;22.50;99.90
8858;DHT22;4465;50.904;4.696;2023-07-20T14:21:29;22.40;99.90
8858;DHT22;4465;50.904;4.696;2023-07-20T14:23:56;22.40;99.90
8858;DHT22;4465;50.904;4.696;2023-07-20T14:26:23;22.40;99.90
8858;DHT22;4465;50.904;4.696;2023-07-20T14:28:52;22.30;99.90
8858;DHT22;4465;50.904;4.696;2023-07-20T14:31:20;22.30;99.90
8858;DHT22;4465;50.904;4.696;2023-07-20T14:33:46;22.30;99.90
8858;DHT22;4465;50.904;4.696;2023-07-20T14:36:12;22.40;99.90
8858;DHT22;4465;50.904;4.696;2023-07-20T14:38:38;22.40;99.90
8858;DHT22;4465;50.904;4.696;2023-07-20T14:41:04;22.50;99.90
8858;DHT22;4465;50.904;4.696;2023-07-20T14:43:33;22.50;99.90
8858;DHT22;4465;50.904;4.696;2023-07-20T14:45:59;22.50;99.90
8858;DHT22;4465;50.904;4.696;2023-07-20T14:48:25;22.50;99.90
8858;DHT22;4465;50.904;4.696;2023-07-20T14:50:51;22.50;99.90
8858;DHT22;4465;50.904;4.696;2023-07-20T14:53:17;22.50;99.90
8858;DHT22;4465;50.904;4.696;2023-07-20T14:55:43;22.50;99.90
8858;DHT22;4465;50.904;4.696;2023-07-20T14:58:10;22.50;99.90
8858;DHT22;4465;50.904;4.696;2023-07-20T15:00:36;22.60;99.90
8858;DHT22;4465;50.904;4.696;2023-07-20T15:03:02;22.60;99.90
8858;DHT22;4465;50.904;4.696;2023-07-20T15:05:28;22.60;99.90
8858;DHT22;4465;50.904;4.696;2023-07-20T15:07:54;22.70;99.90
8858;DHT22;4465;50.904;4.696;2023-07-20T15:10:20;22.70;99.90
8858;DHT22;4465;50.904;4.696;2023-07-20T15:12:46;22.80;99.90
8858;DHT22;4465;50.904;4.696;2023-07-20T15:15:17;22.80;99.90
8858;DHT22;4465;50.904;4.696;2023-07-20T15:17:45;22.80;99.90
8858;DHT22;4465;50.904;4.696;2023-07-20T15:20:13;22.90;99.90
8858;DHT22;4465;50.904;4.696;2023-07-20T15:22:40;22.90;99.90
8858;DHT22;4465;50.904;4.696;2023-07-20T15:25:07;23.00;99.90
8858;DHT22;4465;50.904;4.696;2023-07-20T15:27:33;23.00;99.90
8858;DHT22;4465;50.904;4.696;2023-07-20T15:30:02;22.90;99.90
8858;DHT22;4465;50.904;4.696;2023-07-20T15:32:28;22.90;99.90
8858;DHT22;4465;50.904;4.696;2023-07-20T15:34:54;22.90;99.90
8858;DHT22;4465;50.904;4.696;2023-07-20T15:37:21;22.90;99.90
8858;DHT22;4465;50.904;4.696;2023-07-20T15:39:50;22.90;99.90
8858;DHT22;4465;50.904;4.696;2023-07-20T15:42:16;22.80;99.90
8858;DHT22;4465;50.904;4.696;2023-07-20T15:44:42;22.80;99.90
8858;DHT22;4465;50.904;4.696;2023-07-20T15:47:08;22.80;99.90
8858;DHT22;4465;50.904;4.696;2023-07-20T15:49:39;22.70;99.90
8858;DHT22;4465;50.904;4.696;2023-07-20T15:52:07;22.60;99.90
8858;DHT22;4465;50.904;4.696;2023-07-20T15:54:33;22.70;99.90
8858;DHT22;4465;50.904;4.696;2023-07-20T15:56:59;22.60;99.90
8858;DHT22;4465;50.904;4.696;2023-07-20T15:59:25;22.60;99.90
8858;DHT22;4465;50.904;4.696;2023-07-20T16:01:51;22.60;99.90
8858;DHT22;4465;50.904;4.696;2023-07-20T16:04:17;22.50;99.90
8858;DHT22;4465;50.904;4.696;2023-07-20T16:06:43;22.40;99.90
8858;DHT22;4465;50.904;4.696;2023-07-20T16:09:09;22.40;99.90
8858;DHT22;4465;50.904;4.696;2023-07-20T16:11:37;22.40;99.90
8858;DHT22;4465;50.904;4.696;2023-07-20T16:14:06;22.30;99.90
8858;DHT22;4465;50.904;4.696;2023-07-20T16:16:34;22.20;99.90
8858;DHT22;4465;50.904;4.696;2023-07-20T16:19:00;22.20;99.90
8858;DHT22;4465;50.904;4.696;2023-07-20T16:21:26;22.10;99.90
8858;DHT22;4465;50.904;4.696;2023-07-20T16:23:52;22.10;99.90